sensor_id;sensor_type;location;lat;lon;timestamp;pressure;altitude;pressure_sealevel;temperature;humidity
52957;BME280;38819;42.692;23.342;2023-04-01T00:01:30;94422.06;;;12.29;56.57
52957;BME280;38819;42.692;23.342;2023-04-01T00:03:56;94418.25;;;12.30;56.66
52957;BME280;38819;42.692;23.342;2023-04-01T00:06:22;94423.06;;;12.15;56.94
52957;BME280;38819;42.692;23.342;2023-04-01T00:08:47;94425.13;;;12.18;56.90
52957;BME280;38819;42.692;23.342;2023-04-01T00:11:13;94421.13;;;12.16;56.92
52957;BME280;38819;42.692;23.342;2023-04-01T00:13:40;94425.75;;;12.24;56.77
52957;BME280;38819;42.692;23.342;2023-04-01T00:16:06;94434.66;;;12.16;57.24
52957;BME280;38819;42.692;23.342;2023-04-01T00:18:32;94427.69;;;12.06;57.55
52957;BME280;38819;42.692;23.342;2023-04-01T00:20:57;94429.47;;;11.93;57.88
52957;BME280;38819;42.692;23.342;2023-04-01T00:23:23;94428.34;;;11.94;57.96
52957;BME280;38819;42.692;23.342;2023-04-01T00:25:48;94434.25;;;11.96;58.02
52957;BME280;38819;42.692;23.342;2023-04-01T00:28:19;94417.34;;;11.99;57.89
52957;BME280;38819;42.692;23.342;2023-04-01T00:30:45;94419.56;;;11.97;57.99
52957;BME280;38819;42.692;23.342;2023-04-01T00:33:11;94425.63;;;12.03;57.87
52957;BME280;38819;42.692;23.342;2023-04-01T00:35:37;94423.09;;;11.98;57.99
52957;BME280;38819;42.692;23.342;2023-04-01T00:38:03;94420.22;;;12.03;58.13
52957;BME280;38819;42.692;23.342;2023-04-01T00:40:35;94419.44;;;11.94;58.63
52957;BME280;38819;42.692;23.342;2023-04-01T00:43:01;94406.88;;;11.98;58.20
52957;BME280;38819;42.692;23.342;2023-04-01T00:45:34;94406.19;;;12.10;58.00
52957;BME280;38819;42.692;23.342;2023-04-01T00:48:22;94402.03;;;12.12;57.68
52957;BME280;38819;42.692;23.342;2023-04-01T00:50:52;94391.50;;;12.19;57.56
52957;BME280;38819;42.692;23.342;2023-04-01T00:53:20;94388.66;;;12.25;57.60
52957;BME280;38819;42.692;23.342;2023-04-01T00:55:55;94383.25;;;12.25;57.87
52957;BME280;38819;42.692;23.342;2023-04-01T00:58:24;94384.63;;;12.31;57.58
52957;BME280;38819;42.692;23.342;2023-04-01T01:00:51;94367.00;;;12.25;57.77
52957;BME280;38819;42.692;23.342;2023-04-01T01:03:17;94363.28;;;12.29;57.92
52957;BME280;38819;42.692;23.342;2023-04-01T01:08:24;94365.34;;;12.32;58.19
52957;BME280;38819;42.692;23.342;2023-04-01T01:10:53;94358.03;;;12.33;58.09
52957;BME280;38819;42.692;23.342;2023-04-01T01:16:29;94353.56;;;12.37;57.85
52957;BME280;38819;42.692;23.342;2023-04-01T01:21:48;94339.25;;;12.36;57.92
52957;BME280;38819;42.692;23.342;2023-04-01T01:24:42;94342.31;;;12.17;58.73
52957;BME280;38819;42.692;23.342;2023-04-01T01:27:18;94336.06;;;12.26;58.64
52957;BME280;38819;42.692;23.342;2023-04-01T01:32:42;94330.53;;;12.22;58.75
52957;BME280;38819;42.692;23.342;2023-04-01T01:35:27;94324.66;;;12.20;58.76
52957;BME280;38819;42.692;23.342;2023-04-01T01:38:06;94322.44;;;12.13;58.46
52957;BME280;38819;42.692;23.342;2023-04-01T01:40:34;94319.09;;;12.16;58.56
52957;BME280;38819;42.692;23.342;2023-04-01T01:43:05;94319.59;;;12.10;59.02
52957;BME280;38819;42.692;23.342;2023-04-01T01:45:33;94320.38;;;12.10;58.57
52957;BME280;38819;42.692;23.342;2023-04-01T01:48:02;94323.38;;;12.17;58.23
52957;BME280;38819;42.692;23.342;2023-04-01T01:50:29;94319.72;;;12.13;57.84
52957;BME280;38819;42.692;23.342;2023-04-01T01:53:07;94321.28;;;12.23;57.33
52957;BME280;38819;42.692;23.342;2023-04-01T01:55:35;94311.25;;;12.23;57.24
52957;BME280;38819;42.692;23.342;2023-04-01T01:58:07;94316.81;;;12.27;57.28
52957;BME280;38819;42.692;23.342;2023-04-01T02:00:35;94301.84;;;12.30;57.53
52957;BME280;38819;42.692;23.342;2023-04-01T02:03:01;94305.06;;;12.23;57.83
52957;BME280;38819;42.692;23.342;2023-04-01T02:05:29;94314.09;;;12.27;57.29
52957;BME280;38819;42.692;23.342;2023-04-01T02:08:05;94299.28;;;12.33;57.31
52957;BME280;38819;42.692;23.342;2023-04-01T02:10:35;94304.75;;;12.16;57.72
52957;BME280;38819;42.692;23.342;2023-04-01T02:13:07;94302.53;;;12.18;57.44
52957;BME280;38819;42.692;23.342;2023-04-01T02:15:39;94292.47;;;12.18;57.15
52957;BME280;38819;42.692;23.342;2023-04-01T02:18:07;94297.13;;;12.18;57.18
52957;BME280;38819;42.692;23.342;2023-04-01T02:20:33;94279.59;;;12.15;57.32
52957;BME280;38819;42.692;23.342;2023-04-01T02:23:01;94284.38;;;12.18;57.65
52957;BME280;38819;42.692;23.342;2023-04-01T02:25:29;94280.19;;;12.21;57.77
52957;BME280;38819;42.692;23.342;2023-04-01T02:27:59;94283.84;;;12.25;57.36
52957;BME280;38819;42.692;23.342;2023-04-01T02:30:27;94290.09;;;12.17;57.39
52957;BME280;38819;42.692;23.342;2023-04-01T02:32:56;94280.38;;;12.16;57.54
52957;BME280;38819;42.692;23.342;2023-04-01T02:35:24;94286.09;;;12.23;57.11
52957;BME280;38819;42.692;23.342;2023-04-01T02:37:52;94287.50;;;12.29;57.03
52957;BME280;38819;42.692;23.342;2023-04-01T02:40:19;94288.38;;;12.42;57.32
52957;BME280;38819;42.692;23.342;2023-04-01T02:42:44;94295.09;;;12.36;57.34
52957;BME280;38819;42.692;23.342;2023-04-01T02:45:11;94302.06;;;12.46;57.21
52957;BME280;38819;42.692;23.342;2023-04-01T02:47:37;94308.78;;;12.39;57.54
52957;BME280;38819;42.692;23.342;2023-04-01T02:50:03;94306.44;;;12.29;57.17
52957;BME280;38819;42.692;23.342;2023-04-01T02:52:29;94305.69;;;12.20;57.53
52957;BME280;38819;42.692;23.342;2023-04-01T02:54:55;94313.03;;;12.11;58.10
52957;BME280;38819;42.692;23.342;2023-04-01T02:57:21;94314.06;;;11.80;58.77
52957;BME280;38819;42.692;23.342;2023-04-01T02:59:47;94317.59;;;11.63;59.38
52957;BME280;38819;42.692;23.342;2023-04-01T03:02:13;94330.47;;;11.66;59.31
52957;BME280;38819;42.692;23.342;2023-04-01T03:04:39;94338.28;;;11.50;59.64
52957;BME280;38819;42.692;23.342;2023-04-01T03:07:05;94331.31;;;11.31;60.40
52957;BME280;38819;42.692;23.342;2023-04-01T03:09:30;94325.88;;;10.97;60.95
52957;BME280;38819;42.692;23.342;2023-04-01T03:11:56;94334.97;;;11.09;60.46
52957;BME280;38819;42.692;23.342;2023-04-01T03:14:21;94329.38;;;11.06;60.20
52957;BME280;38819;42.692;23.342;2023-04-01T03:16:47;94330.81;;;11.12;60.16
52957;BME280;38819;42.692;23.342;2023-04-01T03:19:12;94333.53;;;11.21;59.64
52957;BME280;38819;42.692;23.342;2023-04-01T03:21:38;94338.47;;;11.19;60.13
52957;BME280;38819;42.692;23.342;2023-04-01T03:24:04;94333.72;;;11.24;59.83
52957;BME280;38819;42.692;23.342;2023-04-01T03:26:29;94343.06;;;11.36;59.70
52957;BME280;38819;42.692;23.342;2023-04-01T03:28:55;94331.63;;;11.39;59.85
52957;BME280;38819;42.692;23.342;2023-04-01T03:31:21;94351.03;;;11.49;59.63
52957;BME280;38819;42.692;23.342;2023-04-01T03:33:46;94350.88;;;11.55;59.85
52957;BME280;38819;42.692;23.342;2023-04-01T03:36:12;94337.97;;;11.60;59.83
52957;BME280;38819;42.692;23.342;2023-04-01T03:38:40;94330.16;;;11.67;59.70
52957;BME280;38819;42.692;23.342;2023-04-01T03:41:05;94327.91;;;11.78;59.98
52957;BME280;38819;42.692;23.342;2023-04-01T03:43:31;94321.38;;;11.79;60.35
52957;BME280;38819;42.692;23.342;2023-04-01T03:45:57;94317.25;;;11.82;60.27
52957;BME280;38819;42.692;23.342;2023-04-01T03:48:24;94311.19;;;11.85;60.38
52957;BME280;38819;42.692;23.342;2023-04-01T03:50:50;94288.59;;;11.81;61.30
52957;BME280;38819;42.692;23.342;2023-04-01T03:53:16;94278.09;;;11.88;61.30
52957;BME280;38819;42.692;23.342;2023-04-01T03:55:41;94261.53;;;11.90;62.01
52957;BME280;38819;42.692;23.342;2023-04-01T03:58:07;94252.94;;;11.96;61.47
52957;BME280;38819;42.692;23.342;2023-04-01T04:00:33;94243.22;;;11.86;62.25
52957;BME280;38819;42.692;23.342;2023-04-01T04:02:59;94231.63;;;11.95;61.93
52957;BME280;38819;42.692;23.342;2023-04-01T04:05:25;94227.47;;;11.89;60.64
52957;BME280;38819;42.692;23.342;2023-04-01T04:07:51;94236.72;;;11.96;60.18
52957;BME280;38819;42.692;23.342;2023-04-01T04:10:18;94224.41;;;11.99;60.08
52957;BME280;38819;42.692;23.342;2023-04-01T04:12:43;94215.03;;;11.87;60.00
52957;BME280;38819;42.692;23.342;2023-04-01T04:15:09;94216.81;;;11.83;60.74
52957;BME280;38819;42.692;23.342;2023-04-01T04:17:35;94207.41;;;11.90;61.44
52957;BME280;38819;42.692;23.342;2023-04-01T04:20:01;94206.44;;;11.94;60.93
52957;BME280;38819;42.692;23.342;2023-04-01T04:22:26;94212.84;;;11.90;59.96
52957;BME280;38819;42.692;23.342;2023-04-01T04:24:53;94206.28;;;11.91;60.04
52957;BME280;38819;42.692;23.342;2023-04-01T04:27:19;94195.44;;;11.99;59.65
52957;BME280;38819;42.692;23.342;2023-04-01T04:29:45;94189.69;;;12.01;58.85
52957;BME280;38819;42.692;23.342;2023-04-01T04:32:10;94177.84;;;11.84;57.80
52957;BME280;38819;42.692;23.342;2023-04-01T04:34:36;94186.09;;;11.88;58.08
52957;BME280;38819;42.692;23.342;2023-04-01T04:37:01;94177.38;;;11.91;57.90
52957;BME280;38819;42.692;23.342;2023-04-01T04:39:27;94184.16;;;11.97;57.87
52957;BME280;38819;42.692;23.342;2023-04-01T04:41:52;94180.38;;;11.90;58.44
52957;BME280;38819;42.692;23.342;2023-04-01T04:44:18;94178.44;;;11.90;58.43
52957;BME280;38819;42.692;23.342;2023-04-01T04:46:43;94174.31;;;11.93;58.54
52957;BME280;38819;42.692;23.342;2023-04-01T04:49:09;94174.16;;;11.98;58.74
52957;BME280;38819;42.692;23.342;2023-04-01T04:51:34;94179.88;;;11.96;58.25
52957;BME280;38819;42.692;23.342;2023-04-01T04:54:02;94167.41;;;12.04;58.08
52957;BME280;38819;42.692;23.342;2023-04-01T04:56:27;94155.47;;;12.05;57.35
52957;BME280;38819;42.692;23.342;2023-04-01T04:58:53;94151.03;;;12.00;56.99
52957;BME280;38819;42.692;23.342;2023-04-01T05:01:19;94146.13;;;11.94;57.16
52957;BME280;38819;42.692;23.342;2023-04-01T05:03:45;94157.28;;;11.92;58.27
52957;BME280;38819;42.692;23.342;2023-04-01T05:06:13;94161.41;;;11.90;58.57
52957;BME280;38819;42.692;23.342;2023-04-01T05:08:39;94165.16;;;12.06;57.24
52957;BME280;38819;42.692;23.342;2023-04-01T05:11:09;94142.28;;;12.03;56.36
52957;BME280;38819;42.692;23.342;2023-04-01T05:13:36;94133.03;;;12.04;56.58
52957;BME280;38819;42.692;23.342;2023-04-01T05:16:02;94130.47;;;12.08;56.85
52957;BME280;38819;42.692;23.342;2023-04-01T05:18:28;94129.84;;;12.02;57.09
52957;BME280;38819;42.692;23.342;2023-04-01T05:20:54;94140.47;;;12.08;57.10
52957;BME280;38819;42.692;23.342;2023-04-01T05:23:21;94126.09;;;12.16;57.18
52957;BME280;38819;42.692;23.342;2023-04-01T05:25:48;94114.94;;;12.17;57.29
52957;BME280;38819;42.692;23.342;2023-04-01T05:28:15;94105.59;;;12.15;57.26
52957;BME280;38819;42.692;23.342;2023-04-01T05:30:41;94114.94;;;12.17;57.65
52957;BME280;38819;42.692;23.342;2023-04-01T05:33:08;94116.53;;;12.18;57.48
52957;BME280;38819;42.692;23.342;2023-04-01T05:35:34;94115.75;;;12.18;57.59
52957;BME280;38819;42.692;23.342;2023-04-01T05:37:59;94112.75;;;12.11;57.44
52957;BME280;38819;42.692;23.342;2023-04-01T05:40:25;94124.41;;;12.11;57.15
52957;BME280;38819;42.692;23.342;2023-04-01T05:42:50;94125.31;;;12.15;56.82
52957;BME280;38819;42.692;23.342;2023-04-01T05:45:16;94131.59;;;12.28;56.71
52957;BME280;38819;42.692;23.342;2023-04-01T05:47:41;94107.69;;;12.30;56.24
52957;BME280;38819;42.692;23.342;2023-04-01T05:50:09;94114.19;;;12.38;55.71
52957;BME280;38819;42.692;23.342;2023-04-01T05:52:35;94115.41;;;12.40;55.21
52957;BME280;38819;42.692;23.342;2023-04-01T05:55:01;94098.97;;;12.46;55.16
52957;BME280;38819;42.692;23.342;2023-04-01T05:57:26;94095.97;;;12.59;54.36
52957;BME280;38819;42.692;23.342;2023-04-01T05:59:52;94094.00;;;12.69;54.17
52957;BME280;38819;42.692;23.342;2023-04-01T06:02:18;94098.88;;;12.75;54.17
52957;BME280;38819;42.692;23.342;2023-04-01T06:04:44;94088.34;;;12.74;52.87
52957;BME280;38819;42.692;23.342;2023-04-01T06:07:15;94094.09;;;12.72;52.69
52957;BME280;38819;42.692;23.342;2023-04-01T06:09:41;94104.66;;;12.86;52.64
52957;BME280;38819;42.692;23.342;2023-04-01T06:26:10;94106.09;;;12.29;54.03
52957;BME280;38819;42.692;23.342;2023-04-01T06:28:49;94106.75;;;12.26;54.57
52957;BME280;38819;42.692;23.342;2023-04-01T06:39:38;94084.03;;;12.60;54.66
52957;BME280;38819;42.692;23.342;2023-04-01T06:51:09;94080.31;;;12.65;55.41
52957;BME280;38819;42.692;23.342;2023-04-01T06:56:18;94047.59;;;12.58;55.66
52957;BME280;38819;42.692;23.342;2023-04-01T06:58:57;94038.31;;;12.59;55.96
52957;BME280;38819;42.692;23.342;2023-04-01T07:01:50;94041.22;;;12.54;56.33
52957;BME280;38819;42.692;23.342;2023-04-01T07:04:26;94037.84;;;12.57;56.37
52957;BME280;38819;42.692;23.342;2023-04-01T07:07:30;94053.44;;;12.60;56.65
52957;BME280;38819;42.692;23.342;2023-04-01T07:10:03;94056.50;;;12.71;56.55
52957;BME280;38819;42.692;23.342;2023-04-01T07:15:20;94038.25;;;12.80;56.97
52957;BME280;38819;42.692;23.342;2023-04-01T07:17:53;94021.19;;;12.79;57.12
52957;BME280;38819;42.692;23.342;2023-04-01T07:20:27;94024.41;;;12.94;57.29
52957;BME280;38819;42.692;23.342;2023-04-01T07:22:58;94026.22;;;12.90;57.80
52957;BME280;38819;42.692;23.342;2023-04-01T07:25:47;94041.91;;;12.96;57.78
52957;BME280;38819;42.692;23.342;2023-04-01T07:28:14;94049.34;;;13.00;57.87
52957;BME280;38819;42.692;23.342;2023-04-01T07:33:28;94054.47;;;13.13;57.59
52957;BME280;38819;42.692;23.342;2023-04-01T07:36:06;94048.84;;;13.19;57.58
52957;BME280;38819;42.692;23.342;2023-04-01T07:44:18;94047.19;;;13.39;57.01
52957;BME280;38819;42.692;23.342;2023-04-01T07:57:10;94019.00;;;13.80;55.13
52957;BME280;38819;42.692;23.342;2023-04-01T08:16:41;94000.56;;;13.86;54.09
52957;BME280;38819;42.692;23.342;2023-04-01T08:19:31;93987.41;;;14.00;53.85
52957;BME280;38819;42.692;23.342;2023-04-01T08:22:04;93980.50;;;14.03;54.00
52957;BME280;38819;42.692;23.342;2023-04-01T08:24:41;93976.25;;;14.18;53.63
52957;BME280;38819;42.692;23.342;2023-04-01T08:27:31;93977.78;;;14.31;53.46
52957;BME280;38819;42.692;23.342;2023-04-01T08:30:03;93981.50;;;14.39;53.34
52957;BME280;38819;42.692;23.342;2023-04-01T08:32:34;93970.06;;;14.33;53.55
52957;BME280;38819;42.692;23.342;2023-04-01T08:35:17;93959.59;;;14.48;53.09
52957;BME280;38819;42.692;23.342;2023-04-01T08:37:45;93949.44;;;14.44;53.39
52957;BME280;38819;42.692;23.342;2023-04-01T08:43:20;93927.34;;;14.46;53.24
52957;BME280;38819;42.692;23.342;2023-04-01T09:14:11;93918.25;;;15.34;47.53
52957;BME280;38819;42.692;23.342;2023-04-01T09:25:06;93909.56;;;15.64;44.05
52957;BME280;38819;42.692;23.342;2023-04-01T09:28:13;93902.88;;;15.77;43.86
52957;BME280;38819;42.692;23.342;2023-04-01T09:36:45;93880.25;;;15.92;43.68
52957;BME280;38819;42.692;23.342;2023-04-01T09:39:37;93871.91;;;15.85;43.59
52957;BME280;38819;42.692;23.342;2023-04-01T09:45:01;93858.69;;;15.84;43.02
52957;BME280;38819;42.692;23.342;2023-04-01T09:52:55;93840.41;;;15.84;44.66
52957;BME280;38819;42.692;23.342;2023-04-01T10:12:36;93823.78;;;15.89;45.73
52957;BME280;38819;42.692;23.342;2023-04-01T10:20:55;93813.88;;;16.01;46.94
52957;BME280;38819;42.692;23.342;2023-04-01T10:36:52;93799.75;;;15.95;46.21
52957;BME280;38819;42.692;23.342;2023-04-01T10:39:38;93803.47;;;16.06;46.37
52957;BME280;38819;42.692;23.342;2023-04-01T10:48:23;93774.16;;;16.00;46.44
52957;BME280;38819;42.692;23.342;2023-04-01T10:56:45;93769.03;;;15.95;46.81
52957;BME280;38819;42.692;23.342;2023-04-01T11:25:35;93744.41;;;15.87;46.81
52957;BME280;38819;42.692;23.342;2023-04-01T11:41:52;93859.94;;;15.90;47.95
52957;BME280;38819;42.692;23.342;2023-04-01T11:44:24;93879.22;;;15.81;49.46
52957;BME280;38819;42.692;23.342;2023-04-01T11:47:10;93910.78;;;15.66;51.54
52957;BME280;38819;42.692;23.342;2023-04-01T12:06:30;94041.41;;;14.30;66.54
52957;BME280;38819;42.692;23.342;2023-04-01T12:11:41;94001.28;;;14.11;66.55
52957;BME280;38819;42.692;23.342;2023-04-01T12:19:52;93988.69;;;13.90;69.98
52957;BME280;38819;42.692;23.342;2023-04-01T12:22:24;93999.19;;;13.92;69.91
52957;BME280;38819;42.692;23.342;2023-04-01T12:30:35;94023.19;;;13.53;71.72
52957;BME280;38819;42.692;23.342;2023-04-01T12:40:56;94023.97;;;13.04;72.24
52957;BME280;38819;42.692;23.342;2023-04-01T12:55:43;94018.91;;;12.57;74.17
52957;BME280;38819;42.692;23.342;2023-04-01T12:58:44;94010.25;;;12.42;73.49
52957;BME280;38819;42.692;23.342;2023-04-01T13:01:36;93989.28;;;12.39;74.16
52957;BME280;38819;42.692;23.342;2023-04-01T13:15:27;93928.09;;;13.09;75.33
52957;BME280;38819;42.692;23.342;2023-04-01T13:17:58;93920.75;;;12.97;74.08
52957;BME280;38819;42.692;23.342;2023-04-01T13:23:37;93946.72;;;12.73;76.22
52957;BME280;38819;42.692;23.342;2023-04-01T13:26:17;93922.66;;;12.72;76.58
52957;BME280;38819;42.692;23.342;2023-04-01T13:29:26;93913.63;;;12.80;75.67
52957;BME280;38819;42.692;23.342;2023-04-01T13:32:02;93911.94;;;13.12;76.38
52957;BME280;38819;42.692;23.342;2023-04-01T13:34:59;93900.31;;;13.37;76.21
52957;BME280;38819;42.692;23.342;2023-04-01T13:43:19;93882.06;;;13.49;73.14
52957;BME280;38819;42.692;23.342;2023-04-01T13:54:45;93872.06;;;13.13;73.24
52957;BME280;38819;42.692;23.342;2023-04-01T14:07:50;93849.03;;;12.94;73.81
52957;BME280;38819;42.692;23.342;2023-04-01T14:10:25;93846.78;;;12.84;72.87
52957;BME280;38819;42.692;23.342;2023-04-01T14:13:50;93853.53;;;13.03;73.61
52957;BME280;38819;42.692;23.342;2023-04-01T14:24:20;93828.06;;;12.91;71.33
52957;BME280;38819;42.692;23.342;2023-04-01T14:30:15;93797.78;;;12.89;70.98
52957;BME280;38819;42.692;23.342;2023-04-01T14:35:39;93801.03;;;13.07;69.38
52957;BME280;38819;42.692;23.342;2023-04-01T14:38:47;93802.25;;;13.22;70.38
52957;BME280;38819;42.692;23.342;2023-04-01T14:49:14;93813.31;;;13.86;67.98
52957;BME280;38819;42.692;23.342;2023-04-01T14:51:40;93802.56;;;14.05;67.41
52957;BME280;38819;42.692;23.342;2023-04-01T14:54:19;93810.88;;;14.13;67.20
52957;BME280;38819;42.692;23.342;2023-04-01T14:56:51;93808.00;;;14.21;66.74
52957;BME280;38819;42.692;23.342;2023-04-01T14:59:28;93809.50;;;14.35;66.17
52957;BME280;38819;42.692;23.342;2023-04-01T15:02:08;93811.09;;;14.36;66.54
52957;BME280;38819;42.692;23.342;2023-04-01T15:04:46;93815.47;;;14.40;64.83
52957;BME280;38819;42.692;23.342;2023-04-01T15:18:16;93823.84;;;14.19;64.32
52957;BME280;38819;42.692;23.342;2023-04-01T15:32:00;93822.38;;;14.38;63.27
52957;BME280;38819;42.692;23.342;2023-04-01T15:48:41;93831.44;;;13.98;63.21
52957;BME280;38819;42.692;23.342;2023-04-01T16:02:21;94117.66;;;11.58;71.33
52957;BME280;38819;42.692;23.342;2023-04-01T16:04:59;94081.66;;;11.36;70.64
52957;BME280;38819;42.692;23.342;2023-04-01T16:21:35;94091.56;;;10.59;78.77
52957;BME280;38819;42.692;23.342;2023-04-01T16:26:56;94106.66;;;10.60;77.27
52957;BME280;38819;42.692;23.342;2023-04-01T16:37:55;94116.81;;;10.71;74.55
52957;BME280;38819;42.692;23.342;2023-04-01T16:42:51;94137.78;;;10.74;74.65
52957;BME280;38819;42.692;23.342;2023-04-01T16:45:37;94117.91;;;10.88;74.82
52957;BME280;38819;42.692;23.342;2023-04-01T16:48:12;94140.25;;;10.97;73.70
52957;BME280;38819;42.692;23.342;2023-04-01T16:51:11;94132.16;;;10.97;72.61
52957;BME280;38819;42.692;23.342;2023-04-01T16:54:04;94135.66;;;10.98;71.14
52957;BME280;38819;42.692;23.342;2023-04-01T16:56:43;94136.47;;;10.98;71.01
52957;BME280;38819;42.692;23.342;2023-04-01T17:02:12;94143.91;;;10.92;71.29
52957;BME280;38819;42.692;23.342;2023-04-01T17:04:47;94144.41;;;10.86;70.08
52957;BME280;38819;42.692;23.342;2023-04-01T17:08:06;94157.31;;;10.71;68.91
52957;BME280;38819;42.692;23.342;2023-04-01T17:10:57;94164.63;;;10.53;68.93
52957;BME280;38819;42.692;23.342;2023-04-01T17:21:56;94189.84;;;10.49;69.28
52957;BME280;38819;42.692;23.342;2023-04-01T17:49:21;94201.88;;;10.25;69.85
52957;BME280;38819;42.692;23.342;2023-04-01T18:02:47;94242.38;;;10.34;69.05
52957;BME280;38819;42.692;23.342;2023-04-01T18:05:50;94261.28;;;10.34;69.65
52957;BME280;38819;42.692;23.342;2023-04-01T18:10:57;94249.47;;;10.12;68.83
52957;BME280;38819;42.692;23.342;2023-04-01T18:16:18;94258.97;;;10.10;68.82
52957;BME280;38819;42.692;23.342;2023-04-01T18:25:43;94261.66;;;10.01;68.67
52957;BME280;38819;42.692;23.342;2023-04-01T18:28:30;94252.09;;;9.95;69.04
52957;BME280;38819;42.692;23.342;2023-04-01T18:33:36;94267.13;;;9.87;69.13
52957;BME280;38819;42.692;23.342;2023-04-01T18:36:16;94277.66;;;9.97;68.75
52957;BME280;38819;42.692;23.342;2023-04-01T18:44:16;94262.28;;;10.07;68.71
52957;BME280;38819;42.692;23.342;2023-04-01T18:47:10;94261.66;;;10.10;68.47
52957;BME280;38819;42.692;23.342;2023-04-01T18:52:36;94269.63;;;10.15;68.94
52957;BME280;38819;42.692;23.342;2023-04-01T19:01:23;94285.09;;;10.32;67.50
52957;BME280;38819;42.692;23.342;2023-04-01T19:09:49;94286.38;;;10.34;66.65
52957;BME280;38819;42.692;23.342;2023-04-01T19:20:26;94290.50;;;10.32;65.59
52957;BME280;38819;42.692;23.342;2023-04-01T19:25:49;94290.34;;;10.37;65.93
52957;BME280;38819;42.692;23.342;2023-04-01T19:28:23;94291.81;;;10.43;65.92
52957;BME280;38819;42.692;23.342;2023-04-01T19:30:59;94297.84;;;10.49;65.24
52957;BME280;38819;42.692;23.342;2023-04-01T19:42:05;94320.09;;;10.54;63.74
52957;BME280;38819;42.692;23.342;2023-04-01T19:50:36;94322.91;;;10.41;63.07
52957;BME280;38819;42.692;23.342;2023-04-01T19:54:01;94336.94;;;10.51;63.31
52957;BME280;38819;42.692;23.342;2023-04-01T19:56:42;94336.78;;;10.56;62.93
52957;BME280;38819;42.692;23.342;2023-04-01T20:02:26;94335.34;;;10.59;62.82
52957;BME280;38819;42.692;23.342;2023-04-01T20:04:55;94335.84;;;10.61;63.05
52957;BME280;38819;42.692;23.342;2023-04-01T20:07:29;94332.19;;;10.66;62.87
52957;BME280;38819;42.692;23.342;2023-04-01T20:12:55;94344.09;;;10.65;62.58
52957;BME280;38819;42.692;23.342;2023-04-01T20:15:55;94345.03;;;10.60;62.52
52957;BME280;38819;42.692;23.342;2023-04-01T20:21:20;94345.56;;;10.71;62.54
52957;BME280;38819;42.692;23.342;2023-04-01T20:24:01;94342.72;;;10.76;62.42
52957;BME280;38819;42.692;23.342;2023-04-01T20:26:37;94344.75;;;10.70;62.19
52957;BME280;38819;42.692;23.342;2023-04-01T20:29:47;94346.34;;;10.80;61.56
52957;BME280;38819;42.692;23.342;2023-04-01T20:37:35;94353.06;;;10.83;60.68
52957;BME280;38819;42.692;23.342;2023-04-01T20:43:13;94357.28;;;10.66;59.59
52957;BME280;38819;42.692;23.342;2023-04-01T20:51:31;94362.53;;;10.63;58.23
52957;BME280;38819;42.692;23.342;2023-04-01T20:59:45;94355.19;;;10.54;58.69
52957;BME280;38819;42.692;23.342;2023-04-01T21:10:58;94378.19;;;10.43;59.19
52957;BME280;38819;42.692;23.342;2023-04-01T21:22:02;94392.84;;;10.51;58.79
52957;BME280;38819;42.692;23.342;2023-04-01T21:27:47;94389.94;;;10.47;59.01
52957;BME280;38819;42.692;23.342;2023-04-01T21:39:07;94393.47;;;10.56;58.39
52957;BME280;38819;42.692;23.342;2023-04-01T22:06:50;94388.94;;;10.34;58.90
52957;BME280;38819;42.692;23.342;2023-04-01T22:10:09;94394.81;;;10.36;59.08
52957;BME280;38819;42.692;23.342;2023-04-01T22:15:04;94382.66;;;10.25;59.36
52957;BME280;38819;42.692;23.342;2023-04-01T22:20:33;94383.66;;;10.29;59.35
52957;BME280;38819;42.692;23.342;2023-04-01T22:23:12;94378.19;;;10.20;59.45
52957;BME280;38819;42.692;23.342;2023-04-01T22:26:27;94378.84;;;10.17;59.70
52957;BME280;38819;42.692;23.342;2023-04-01T22:31:18;94377.84;;;10.13;59.54
52957;BME280;38819;42.692;23.342;2023-04-01T22:36:42;94379.50;;;10.23;58.87
52957;BME280;38819;42.692;23.342;2023-04-01T22:42:21;94374.88;;;10.24;58.26
52957;BME280;38819;42.692;23.342;2023-04-01T22:55:44;94391.59;;;10.26;57.70
52957;BME280;38819;42.692;23.342;2023-04-01T22:58:15;94402.75;;;10.33;57.37
52957;BME280;38819;42.692;23.342;2023-04-01T23:00:45;94401.44;;;10.30;57.36
52957;BME280;38819;42.692;23.342;2023-04-01T23:03:28;94405.00;;;10.40;56.95
52957;BME280;38819;42.692;23.342;2023-04-01T23:06:00;94405.03;;;10.48;56.43
52957;BME280;38819;42.692;23.342;2023-04-01T23:11:46;94401.25;;;10.49;56.38
52957;BME280;38819;42.692;23.342;2023-04-01T23:17:14;94406.19;;;10.56;55.64
52957;BME280;38819;42.692;23.342;2023-04-01T23:27:45;94408.19;;;10.42;56.27
52957;BME280;38819;42.692;23.342;2023-04-01T23:33:29;94427.72;;;10.47;56.09
52957;BME280;38819;42.692;23.342;2023-04-01T23:35:58;94413.59;;;10.42;56.13
52957;BME280;38819;42.692;23.342;2023-04-01T23:38:36;94417.88;;;10.43;55.91
52957;BME280;38819;42.692;23.342;2023-04-01T23:41:04;94412.97;;;10.45;55.98
52957;BME280;38819;42.692;23.342;2023-04-01T23:43:39;94404.66;;;10.32;56.28
52957;BME280;38819;42.692;23.342;2023-04-01T23:46:07;94411.03;;;10.36;56.42
52957;BME280;38819;42.692;23.342;2023-04-01T23:48:36;94416.44;;;10.45;55.90
52957;BME280;38819;42.692;23.342;2023-04-01T23:51:03;94414.44;;;10.51;55.61
52957;BME280;38819;42.692;23.342;2023-04-01T23:53:44;94417.00;;;10.56;55.65
52957;BME280;38819;42.692;23.342;2023-04-01T23:56:10;94419.03;;;10.59;55.13
52957;BME280;38819;42.692;23.342;2023-04-01T23:58:41;94420.81;;;10.64;55.05
